Etusivu
METAR-TAF:

METAR-TAF

Lentoasemat :

Morris Municipal Airport (Charlie Schmidt Field)

Morris, Minnesota, Yhdysvallat

Leveyspiiri: 45-34N, Pituuspiiri: 095-58W, korkeus merenpinnasta: 344 m

Tämänhetkinen sää

Tämä raportti tehtiin 25 minuuttia sitten, kello 09.16 UTC
Tuuli 8 kn luoteesta
Lämpötila 2°C
Kosteus 80%
Ilmanpaine 1017 hPa
Näkyvyys: 16.1 km
selkeää

METAR: KMOX 260916Z AUTO 32008KT 10SM CLR 02/M01 A3003 RMK AO2

Aika: 04:41 (09:41 UTC)


TAF: puuttuu

Säähavainnot ja -ennusteet yli 4000 lentoasemalta (METAR- ja TAF-raportit).

Käytössä olevat sääasemat on merkitty karttaan keltaisilla ja punaisilla pisteillä.

Aseta hiiri pisteen päälle nähdäksesi sääaseman nimen.

Klikkaa sitten nähdäksesi säähavainnot ja -ennusteet.

Kartan vaihtaminen: klikkaa mustalla rastilla varustettuja vihreitä pisteitä, niin voit zoomata sisään; viivalla varustettua vihreää pistettä, niin voit zoomata ulos tai vihreitä nuolia, niin pääset viereisille kartoille.


METAR-TAF: